createdAt,value
2023-02-06T00:00:48.592Z,3.22
2023-02-06T00:03:15.196Z,3.21
2023-02-06T00:05:41.655Z,3.17
2023-02-06T00:08:08.235Z,3.10
2023-02-06T00:10:34.995Z,3.04
2023-02-06T00:13:01.472Z,3.00
2023-02-06T00:15:27.887Z,2.99
2023-02-06T00:17:54.246Z,2.97
2023-02-06T00:20:20.657Z,2.95
2023-02-06T00:22:47.139Z,2.92
2023-02-06T00:25:13.558Z,2.93
2023-02-06T00:27:39.939Z,2.91
2023-02-06T00:30:06.778Z,2.89
2023-02-06T00:32:34.789Z,2.98
2023-02-06T00:35:01.330Z,2.97
2023-02-06T00:37:27.783Z,2.94
2023-02-06T00:39:54.138Z,2.91
2023-02-06T00:42:20.698Z,2.84
2023-02-06T00:44:47.056Z,2.79
2023-02-06T00:47:13.454Z,2.73
2023-02-06T00:49:39.901Z,2.70
2023-02-06T00:52:06.278Z,2.63
2023-02-06T00:54:32.953Z,2.64
2023-02-06T00:56:59.476Z,2.68
2023-02-06T00:59:25.961Z,2.73
2023-02-06T01:01:52.426Z,2.66
2023-02-06T01:04:18.956Z,2.63
2023-02-06T01:06:45.376Z,2.54
2023-02-06T01:09:11.896Z,2.46
2023-02-06T01:11:38.288Z,2.40
2023-02-06T01:14:05.064Z,2.36
2023-02-06T01:16:31.533Z,2.32
2023-02-06T01:18:57.985Z,2.31
2023-02-06T01:21:25.370Z,2.27
2023-02-06T01:23:54.035Z,2.28
2023-02-06T01:26:24.147Z,2.26
2023-02-06T01:28:51.177Z,2.25
2023-02-06T01:31:19.256Z,2.32
2023-02-06T01:33:47.311Z,2.32
2023-02-06T01:36:14.742Z,2.38
2023-02-06T01:38:41.791Z,2.28
2023-02-06T01:41:10.169Z,2.22
2023-02-06T01:43:39.918Z,2.18
2023-02-06T01:46:07.044Z,2.16
2023-02-06T01:48:40.899Z,2.21
2023-02-06T01:51:18.236Z,2.15
2023-02-06T01:53:48.257Z,2.13
2023-02-06T01:56:19.372Z,2.12
2023-02-06T01:58:53.706Z,2.18
2023-02-06T02:01:21.031Z,2.26
2023-02-06T02:03:51.300Z,2.33
2023-02-06T02:06:20.759Z,2.27
2023-02-06T02:08:50.727Z,2.21
2023-02-06T02:11:21.561Z,2.12
2023-02-06T02:13:51.152Z,2.11
2023-02-06T02:16:46.918Z,2.12
2023-02-06T02:19:44.238Z,2.15
2023-02-06T02:22:13.288Z,2.15
2023-02-06T02:24:57.263Z,2.14
2023-02-06T02:27:44.764Z,2.10
2023-02-06T02:30:14.147Z,2.08
2023-02-06T02:32:58.664Z,2.07
2023-02-06T02:35:28.887Z,2.08
2023-02-06T02:38:18.315Z,2.12
2023-02-06T02:40:57.090Z,2.10
2023-02-06T02:43:42.546Z,2.07
2023-02-06T02:46:19.683Z,2.06
2023-02-06T02:48:50.849Z,2.04
2023-02-06T02:51:17.904Z,2.06
2023-02-06T02:53:44.744Z,2.06
2023-02-06T02:56:23.559Z,2.04
2023-02-06T02:59:10.639Z,2.04
2023-02-06T03:01:44.638Z,2.03
2023-02-06T03:04:18.410Z,2.10
2023-02-06T03:07:09.399Z,2.14
2023-02-06T03:10:08.036Z,2.13
2023-02-06T03:12:50.142Z,2.07
2023-02-06T03:15:41.654Z,2.06
2023-02-06T03:18:28.556Z,2.05
2023-02-06T03:20:55.180Z,2.12
2023-02-06T03:23:30.518Z,2.14
2023-02-06T03:26:01.843Z,2.13
2023-02-06T03:28:34.662Z,2.10
2023-02-06T03:31:04.680Z,2.09
2023-02-06T03:33:37.818Z,2.11
2023-02-06T03:36:05.344Z,2.14
2023-02-06T03:38:32.343Z,2.20
2023-02-06T03:41:00.420Z,2.23
2023-02-06T03:43:29.398Z,2.21
2023-02-06T03:46:04.217Z,2.16
2023-02-06T03:48:39.651Z,2.12
2023-02-06T03:51:14.388Z,2.09
2023-02-06T03:53:44.216Z,2.11
2023-02-06T03:56:38.299Z,2.12
2023-02-06T03:59:04.952Z,2.08
2023-02-06T04:01:31.724Z,2.07
2023-02-06T04:03:58.550Z,2.04
2023-02-06T04:06:24.955Z,2.01
2023-02-06T04:08:51.544Z,2.05
2023-02-06T04:11:18.025Z,2.13
2023-02-06T04:13:44.396Z,2.11
2023-02-06T04:16:10.783Z,2.06
2023-02-06T04:18:37.226Z,2.03
2023-02-06T04:21:05.427Z,2.01
2023-02-06T04:23:32.242Z,2.04
2023-02-06T04:25:58.694Z,2.05
2023-02-06T04:28:25.101Z,2.10
2023-02-06T04:30:51.765Z,2.31
2023-02-06T04:33:18.415Z,2.38
2023-02-06T04:35:44.781Z,2.47
2023-02-06T04:38:11.193Z,2.53
2023-02-06T04:40:37.663Z,2.54
2023-02-06T04:43:04.020Z,2.55
2023-02-06T04:45:30.392Z,2.66
2023-02-06T04:47:59.176Z,2.75
2023-02-06T04:50:28.194Z,2.80
2023-02-06T04:52:54.607Z,2.85
2023-02-06T04:55:22.507Z,2.86
2023-02-06T04:57:48.997Z,2.86
2023-02-06T05:00:15.979Z,2.85
2023-02-06T05:02:42.490Z,2.86
2023-02-06T05:05:09.368Z,2.87
2023-02-06T05:07:36.230Z,2.87
2023-02-06T05:10:03.296Z,2.87
2023-02-06T05:12:29.675Z,2.85
2023-02-06T05:14:56.354Z,2.84
2023-02-06T05:17:22.759Z,2.78
2023-02-06T05:19:49.201Z,2.73
2023-02-06T05:22:15.617Z,2.67
2023-02-06T05:24:41.994Z,2.63
2023-02-06T05:27:08.427Z,2.62
2023-02-06T05:29:34.891Z,2.59
2023-02-06T05:32:01.272Z,2.57
2023-02-06T05:34:27.703Z,2.55
2023-02-06T05:36:54.112Z,2.54
2023-02-06T05:39:21.098Z,2.54
2023-02-06T05:41:47.500Z,2.53
2023-02-06T05:44:13.903Z,2.52
2023-02-06T05:46:40.428Z,2.54
2023-02-06T05:49:06.967Z,2.56
2023-02-06T05:51:33.543Z,2.55
2023-02-06T05:53:59.921Z,2.52
2023-02-06T05:56:26.334Z,2.48
2023-02-06T05:58:53.055Z,2.46
2023-02-06T06:01:19.455Z,2.41
2023-02-06T06:03:46.006Z,2.40
2023-02-06T06:06:12.396Z,2.42
2023-02-06T06:08:38.771Z,2.43
2023-02-06T06:11:05.339Z,2.43
2023-02-06T06:13:32.448Z,2.39
2023-02-06T06:15:58.873Z,2.35
2023-02-06T06:18:26.482Z,2.33
2023-02-06T06:20:53.463Z,2.32
2023-02-06T06:23:19.986Z,2.27
2023-02-06T06:25:47.653Z,2.27
2023-02-06T06:28:14.059Z,2.25
2023-02-06T06:30:40.551Z,2.26
2023-02-06T06:33:06.939Z,2.29
2023-02-06T06:35:33.777Z,2.26
2023-02-06T06:38:00.237Z,2.23
2023-02-06T06:40:26.645Z,2.30
2023-02-06T06:42:53.123Z,2.34
2023-02-06T06:45:19.722Z,2.43
2023-02-06T06:47:46.331Z,2.45
2023-02-06T06:50:12.768Z,2.41
2023-02-06T06:52:39.169Z,2.36
2023-02-06T06:55:05.956Z,2.34
2023-02-06T06:57:32.681Z,2.32
2023-02-06T06:59:59.177Z,2.31
2023-02-06T07:02:25.759Z,2.24
2023-02-06T07:04:52.172Z,2.19
2023-02-06T07:07:18.645Z,2.18
2023-02-06T07:09:45.080Z,2.21
2023-02-06T07:12:11.485Z,2.23
2023-02-06T07:14:39.604Z,2.24
2023-02-06T07:17:05.997Z,2.30
2023-02-06T07:19:32.419Z,2.33
2023-02-06T07:21:58.883Z,2.35
2023-02-06T07:24:25.254Z,2.37
2023-02-06T07:26:51.707Z,2.44
2023-02-06T07:29:18.198Z,2.45
2023-02-06T07:31:44.748Z,2.43
2023-02-06T07:34:12.543Z,2.38
2023-02-06T07:36:39.018Z,2.32
2023-02-06T07:39:05.622Z,2.21
2023-02-06T07:41:31.978Z,2.18
2023-02-06T07:43:58.405Z,2.22
2023-02-06T07:46:24.881Z,2.23
2023-02-06T07:48:51.271Z,2.23
2023-02-06T07:51:17.823Z,2.29
2023-02-06T07:53:44.318Z,2.32
2023-02-06T07:56:13.701Z,2.25
2023-02-06T07:58:40.082Z,2.19
2023-02-06T08:01:06.822Z,2.19
2023-02-06T08:03:33.520Z,2.23
2023-02-06T08:06:00.095Z,2.24
2023-02-06T08:08:26.741Z,2.25
2023-02-06T08:10:53.129Z,2.19
2023-02-06T08:13:19.564Z,2.20
2023-02-06T08:15:46.018Z,2.22
2023-02-06T08:18:12.474Z,2.27
2023-02-06T08:20:38.850Z,2.44
2023-02-06T08:23:05.376Z,2.47
2023-02-06T08:25:31.866Z,2.49
2023-02-06T08:27:58.318Z,2.57
2023-02-06T08:30:24.843Z,2.63
2023-02-06T08:32:51.406Z,2.69
2023-02-06T08:35:17.924Z,2.82
2023-02-06T08:37:44.352Z,2.98
2023-02-06T08:40:11.280Z,3.12
2023-02-06T08:42:37.701Z,3.25
2023-02-06T08:45:04.644Z,3.41
2023-02-06T08:47:31.161Z,3.47
2023-02-06T08:49:57.513Z,3.56
2023-02-06T08:52:24.159Z,3.68
2023-02-06T08:54:51.986Z,3.87
2023-02-06T08:57:18.479Z,4.11
2023-02-06T08:59:44.899Z,4.33
2023-02-06T09:02:11.669Z,4.61
2023-02-06T09:04:39.110Z,4.71
2023-02-06T09:07:05.544Z,4.88
2023-02-06T09:09:32.033Z,5.05
2023-02-06T09:12:03.187Z,5.19
2023-02-06T09:14:30.551Z,5.41
2023-02-06T09:16:59.992Z,5.62
2023-02-06T09:19:26.883Z,5.71
2023-02-06T09:21:53.642Z,5.77
2023-02-06T09:24:20.385Z,5.99
2023-02-06T09:26:58.891Z,6.34
2023-02-06T09:29:28.658Z,6.93
2023-02-06T09:31:57.261Z,6.49
2023-02-06T09:34:26.190Z,6.41
2023-02-06T09:36:56.924Z,6.49
2023-02-06T09:39:24.377Z,6.42
2023-02-06T09:41:55.040Z,6.76
2023-02-06T09:44:29.599Z,7.89
2023-02-06T09:47:05.112Z,8.73
2023-02-06T09:49:51.423Z,9.66
2023-02-06T09:52:47.655Z,9.45
2023-02-06T09:55:46.806Z,8.01
2023-02-06T09:58:22.585Z,7.02
2023-02-06T10:00:52.254Z,7.62
2023-02-06T10:03:39.440Z,9.34
2023-02-06T10:06:20.429Z,8.88
2023-02-06T10:09:10.146Z,8.77
2023-02-06T10:12:00.694Z,8.63
2023-02-06T10:14:46.807Z,7.96
2023-02-06T10:17:13.144Z,7.58
2023-02-06T10:19:49.435Z,7.59
2023-02-06T10:22:21.068Z,8.10
2023-02-06T10:25:06.084Z,7.63
2023-02-06T10:27:35.099Z,7.50
2023-02-06T10:30:01.782Z,7.47
2023-02-06T10:32:47.912Z,7.31
2023-02-06T10:35:29.468Z,7.38
2023-02-06T10:38:20.095Z,7.38
2023-02-06T10:40:54.590Z,7.52
2023-02-06T10:43:20.937Z,7.57
2023-02-06T10:46:24.451Z,7.31
2023-02-06T10:49:05.282Z,7.15
2023-02-06T10:51:35.482Z,7.33
2023-02-06T10:54:15.035Z,8.01
2023-02-06T10:56:46.771Z,8.63
2023-02-06T10:59:22.660Z,8.39
2023-02-06T11:01:55.624Z,8.05
2023-02-06T11:04:30.320Z,7.66
2023-02-06T11:07:00.921Z,7.64
2023-02-06T11:09:27.484Z,7.43
2023-02-06T11:11:56.787Z,7.37
2023-02-06T11:14:27.837Z,7.32
2023-02-06T11:16:54.507Z,7.91
2023-02-06T11:19:37.312Z,8.18
2023-02-06T11:22:16.161Z,8.53
2023-02-06T11:25:19.157Z,8.80
2023-02-06T11:27:45.721Z,8.61
2023-02-06T11:30:36.693Z,8.26
2023-02-06T11:33:05.162Z,8.19
2023-02-06T11:35:38.038Z,7.74
2023-02-06T11:38:27.462Z,7.47
2023-02-06T11:41:02.644Z,7.38
2023-02-06T11:43:41.280Z,7.24
2023-02-06T11:46:16.841Z,7.45
2023-02-06T11:48:55.542Z,8.23
2023-02-06T11:51:23.670Z,8.50
2023-02-06T11:54:00.991Z,9.06
2023-02-06T11:56:29.147Z,9.50
2023-02-06T11:59:14.555Z,10.01
2023-02-06T12:01:45.269Z,9.71
2023-02-06T12:04:31.250Z,9.51
2023-02-06T12:07:29.923Z,9.23
2023-02-06T12:09:56.440Z,8.80
2023-02-06T12:12:28.976Z,8.34
2023-02-06T12:15:23.666Z,7.81
2023-02-06T12:17:56.889Z,7.47
2023-02-06T12:20:28.829Z,7.38
2023-02-06T12:23:00.152Z,7.30
2023-02-06T12:25:26.602Z,7.31
2023-02-06T12:27:56.452Z,7.69
2023-02-06T12:30:35.795Z,8.02
2023-02-06T12:33:33.387Z,8.52
2023-02-06T12:36:07.364Z,8.87
2023-02-06T12:39:00.927Z,9.40
2023-02-06T12:41:46.215Z,9.76
2023-02-06T12:44:28.354Z,10.26
2023-02-06T12:47:04.062Z,10.89
2023-02-06T12:49:39.759Z,11.29
2023-02-06T12:52:17.571Z,11.79
2023-02-06T12:54:51.414Z,12.51
2023-02-06T12:57:26.597Z,13.27
2023-02-06T13:00:01.784Z,12.83
2023-02-06T13:02:54.420Z,11.13
2023-02-06T13:05:27.887Z,12.80
2023-02-06T13:08:04.134Z,10.95
2023-02-06T13:10:30.594Z,9.99
2023-02-06T13:12:59.147Z,12.31
2023-02-06T13:15:36.167Z,13.17
2023-02-06T13:18:02.961Z,13.42
2023-02-06T13:20:30.141Z,14.34
2023-02-06T13:23:12.714Z,14.77
2023-02-06T13:25:39.208Z,14.99
2023-02-06T13:28:25.486Z,15.17
2023-02-06T13:31:04.533Z,15.22
2023-02-06T13:33:44.720Z,15.45
2023-02-06T13:36:25.437Z,15.97
2023-02-06T13:38:57.027Z,15.32
2023-02-06T13:41:34.837Z,14.17
2023-02-06T13:44:14.748Z,11.45
2023-02-06T13:47:00.537Z,10.07
2023-02-06T13:50:01.047Z,9.12
2023-02-06T13:52:38.915Z,8.39
2023-02-06T13:55:26.333Z,8.08
2023-02-06T13:58:20.103Z,7.92
2023-02-06T14:00:49.454Z,7.74
2023-02-06T14:03:28.531Z,7.56
2023-02-06T14:06:20.659Z,7.45
2023-02-06T14:09:02.181Z,7.35
2023-02-06T14:12:14.870Z,7.34
2023-02-06T14:14:49.437Z,7.74
2023-02-06T14:17:34.384Z,7.82
2023-02-06T14:20:19.708Z,8.10
2023-02-06T14:23:11.154Z,8.32
2023-02-06T14:26:09.896Z,8.33
2023-02-06T14:29:00.780Z,8.30
2023-02-06T14:31:47.694Z,8.59
2023-02-06T14:34:17.081Z,8.62
2023-02-06T14:37:04.045Z,8.43
2023-02-06T14:39:35.886Z,8.43
2023-02-06T14:42:15.161Z,8.28
2023-02-06T14:44:43.151Z,8.04
2023-02-06T14:47:18.431Z,7.82
2023-02-06T14:49:46.521Z,7.50
2023-02-06T14:52:21.955Z,7.19
2023-02-06T14:54:48.784Z,6.94
2023-02-06T14:57:26.594Z,6.70
2023-02-06T14:59:59.535Z,6.53
2023-02-06T15:02:35.240Z,6.46
2023-02-06T15:05:04.035Z,6.41
2023-02-06T15:07:36.456Z,6.31
2023-02-06T15:10:13.322Z,6.27
2023-02-06T15:12:39.980Z,6.25
2023-02-06T15:15:22.004Z,6.24
2023-02-06T15:18:01.735Z,6.24
2023-02-06T15:20:28.123Z,6.37
2023-02-06T15:23:08.049Z,6.56
2023-02-06T15:25:49.912Z,6.80
2023-02-06T15:28:19.200Z,6.92
2023-02-06T15:30:46.487Z,6.92
2023-02-06T15:33:20.557Z,6.84
2023-02-06T15:35:53.136Z,6.66
2023-02-06T15:38:21.258Z,6.51
2023-02-06T15:40:55.092Z,6.37
2023-02-06T15:43:25.390Z,6.24
2023-02-06T15:45:57.555Z,6.07
2023-02-06T15:48:43.648Z,5.91
2023-02-06T15:51:29.993Z,5.86
2023-02-06T15:54:09.097Z,5.78
2023-02-06T15:56:43.053Z,5.68
2023-02-06T15:59:20.360Z,5.58
2023-02-06T16:01:49.203Z,5.49
2023-02-06T16:04:19.628Z,5.42
2023-02-06T16:06:58.793Z,5.27
2023-02-06T16:09:25.937Z,5.16
2023-02-06T16:11:53.966Z,5.08
2023-02-06T16:14:35.939Z,4.98
2023-02-06T16:17:22.130Z,4.90
2023-02-06T16:19:54.604Z,4.75
2023-02-06T16:22:20.957Z,4.57
2023-02-06T16:24:48.508Z,4.57
2023-02-06T16:27:19.403Z,4.47
2023-02-06T16:29:51.795Z,4.31
2023-02-06T16:32:23.217Z,4.18
2023-02-06T16:34:49.815Z,4.02
2023-02-06T16:37:27.628Z,3.95
2023-02-06T16:39:54.836Z,3.76
2023-02-06T16:42:27.134Z,3.71
2023-02-06T16:44:59.452Z,3.58
2023-02-06T16:47:26.617Z,3.48
2023-02-06T16:49:53.119Z,3.43
2023-02-06T16:52:27.427Z,3.26
2023-02-06T16:55:04.266Z,3.14
2023-02-06T16:57:38.017Z,3.07
2023-02-06T17:00:15.740Z,2.94
2023-02-06T17:02:42.114Z,2.89
2023-02-06T17:05:08.599Z,2.78
2023-02-06T17:07:35.138Z,2.71
2023-02-06T17:10:02.344Z,2.61
2023-02-06T17:12:30.418Z,2.49
2023-02-06T17:14:56.914Z,2.42
2023-02-06T17:17:23.430Z,2.35
2023-02-06T17:19:52.202Z,2.28
2023-02-06T17:22:18.995Z,2.20
2023-02-06T17:24:45.466Z,2.19
2023-02-06T17:27:17.050Z,2.22
2023-02-06T17:29:46.257Z,2.15
2023-02-06T17:32:16.013Z,2.09
2023-02-06T17:34:42.346Z,2.05
2023-02-06T17:37:12.477Z,1.97
2023-02-06T17:39:38.839Z,1.88
2023-02-06T17:42:05.337Z,1.81
2023-02-06T17:44:31.710Z,1.83
2023-02-06T17:46:58.179Z,1.89
2023-02-06T17:49:24.548Z,1.85
2023-02-06T17:51:51.903Z,1.79
2023-02-06T17:54:18.298Z,1.72
2023-02-06T17:56:44.695Z,1.66
2023-02-06T17:59:11.094Z,1.61
2023-02-06T18:01:37.652Z,1.56
2023-02-06T18:04:04.525Z,1.52
2023-02-06T18:06:36.279Z,1.46
2023-02-06T18:09:03.149Z,1.45
2023-02-06T18:11:29.647Z,1.41
2023-02-06T18:13:56.096Z,1.32
2023-02-06T18:16:25.444Z,1.28
2023-02-06T18:18:52.233Z,1.23
2023-02-06T18:21:20.167Z,1.13
2023-02-06T18:23:47.941Z,1.01
2023-02-06T18:26:14.588Z,0.95
2023-02-06T18:28:41.012Z,0.89
2023-02-06T18:31:21.618Z,0.83
2023-02-06T18:33:48.039Z,0.74
2023-02-06T18:36:14.507Z,0.67
2023-02-06T18:38:41.486Z,0.66
2023-02-06T18:41:27.859Z,0.62
2023-02-06T18:43:54.257Z,0.58
2023-02-06T18:46:20.704Z,0.66
2023-02-06T18:48:47.120Z,0.61
2023-02-06T18:51:13.583Z,0.53
2023-02-06T18:53:39.991Z,0.48
2023-02-06T18:56:06.675Z,0.46
2023-02-06T18:58:33.138Z,0.39
2023-02-06T19:00:59.591Z,0.38
2023-02-06T19:03:26.023Z,0.37
2023-02-06T19:05:52.398Z,0.34
2023-02-06T19:08:19.590Z,0.24
2023-02-06T19:10:46.023Z,0.18
2023-02-06T19:13:12.473Z,0.16
2023-02-06T19:15:38.931Z,0.12
2023-02-06T19:18:06.082Z,0.05
2023-02-06T19:20:32.448Z,0.02
2023-02-06T19:22:58.870Z,-0.01
2023-02-06T19:25:25.352Z,-0.01
2023-02-06T19:27:51.807Z,-0.04
2023-02-06T19:30:18.259Z,0.03
2023-02-06T19:32:44.833Z,0.08
2023-02-06T19:35:12.002Z,0.07
2023-02-06T19:37:38.416Z,0.17
2023-02-06T19:40:05.182Z,0.30
2023-02-06T19:42:31.586Z,0.29
2023-02-06T19:44:57.957Z,0.26
2023-02-06T19:47:24.415Z,0.18
2023-02-06T19:49:53.826Z,0.10
2023-02-06T19:52:20.542Z,0.05
2023-02-06T19:54:47.672Z,0.06
2023-02-06T19:57:14.848Z,-0.01
2023-02-06T19:59:41.796Z,-0.05
2023-02-06T20:02:15.756Z,-0.07
2023-02-06T20:04:42.708Z,-0.14
2023-02-06T20:07:09.219Z,-0.21
2023-02-06T20:09:41.016Z,-0.31
2023-02-06T20:12:10.139Z,-0.32
2023-02-06T20:14:36.655Z,-0.36
2023-02-06T20:17:03.142Z,-0.39
2023-02-06T20:19:29.718Z,-0.45
2023-02-06T20:21:58.811Z,-0.49
2023-02-06T20:24:28.075Z,-0.47
2023-02-06T20:26:58.445Z,-0.49
2023-02-06T20:29:27.844Z,-0.52
2023-02-06T20:31:55.379Z,-0.61
2023-02-06T20:34:23.006Z,-0.63
2023-02-06T20:36:50.683Z,-0.68
2023-02-06T20:39:17.263Z,-0.71
2023-02-06T20:41:45.562Z,-0.75
2023-02-06T20:44:13.535Z,-0.82
2023-02-06T20:46:40.847Z,-0.85
2023-02-06T20:49:13.781Z,-0.84
2023-02-06T20:51:40.175Z,-0.89
2023-02-06T20:54:06.739Z,-0.93
2023-02-06T20:56:34.399Z,-0.83
2023-02-06T20:59:01.318Z,-0.75
2023-02-06T21:01:30.733Z,-0.79
2023-02-06T21:04:03.859Z,-0.88
2023-02-06T21:06:31.466Z,-0.94
2023-02-06T21:09:00.219Z,-0.94
2023-02-06T21:11:33.023Z,-1.01
2023-02-06T21:14:02.319Z,-1.04
2023-02-06T21:16:30.819Z,-1.06
2023-02-06T21:18:58.680Z,-1.14
2023-02-06T21:21:26.151Z,-1.20
2023-02-06T21:23:55.660Z,-1.22
2023-02-06T21:26:23.888Z,-1.21
2023-02-06T21:28:51.373Z,-1.22
2023-02-06T21:31:24.075Z,-1.25
2023-02-06T21:33:52.149Z,-1.29
2023-02-06T21:36:21.004Z,-1.29
2023-02-06T21:38:47.428Z,-1.32
2023-02-06T21:41:16.838Z,-1.24
2023-02-06T21:43:43.941Z,-1.26
2023-02-06T21:46:11.227Z,-1.31
2023-02-06T21:48:38.774Z,-1.35
2023-02-06T21:51:16.378Z,-1.41
2023-02-06T21:53:44.019Z,-1.42
2023-02-06T21:56:14.858Z,-1.37
2023-02-06T21:58:41.322Z,-1.36
2023-02-06T22:01:09.009Z,-1.42
2023-02-06T22:03:35.875Z,-1.49
2023-02-06T22:06:11.597Z,-1.52
2023-02-06T22:08:40.500Z,-1.56
2023-02-06T22:11:15.662Z,-1.54
2023-02-06T22:13:42.769Z,-1.54
2023-02-06T22:16:11.100Z,-1.60
2023-02-06T22:18:38.263Z,-1.58
2023-02-06T22:21:16.256Z,-1.60
2023-02-06T22:23:43.838Z,-1.65
2023-02-06T22:26:12.534Z,-1.64
2023-02-06T22:28:39.459Z,-1.61
2023-02-06T22:31:08.471Z,-1.61
2023-02-06T22:33:35.126Z,-1.68
2023-02-06T22:36:06.649Z,-1.62
2023-02-06T22:38:33.572Z,-1.71
2023-02-06T22:41:02.062Z,-1.61
2023-02-06T22:43:30.056Z,-1.60
2023-02-06T22:45:56.590Z,-1.71
2023-02-06T22:48:22.996Z,-1.74
2023-02-06T22:50:50.309Z,-1.80
2023-02-06T22:53:31.869Z,-1.82
2023-02-06T22:56:31.147Z,-1.89
2023-02-06T22:59:01.067Z,-1.90
2023-02-06T23:01:49.751Z,-1.85
2023-02-06T23:04:20.152Z,-1.92
2023-02-06T23:06:47.544Z,-1.97
2023-02-06T23:09:17.517Z,-1.98
2023-02-06T23:11:44.987Z,-2.00
2023-02-06T23:14:13.215Z,-2.02
2023-02-06T23:16:39.866Z,-1.98
2023-02-06T23:19:07.146Z,-1.93
2023-02-06T23:21:37.100Z,-1.94
2023-02-06T23:24:05.766Z,-1.99
2023-02-06T23:26:32.868Z,-1.98
2023-02-06T23:29:01.144Z,-2.02
2023-02-06T23:31:28.171Z,-2.04
2023-02-06T23:33:55.172Z,-2.06
2023-02-06T23:36:24.279Z,-2.04
2023-02-06T23:38:51.196Z,-2.03
2023-02-06T23:41:20.971Z,-2.01
2023-02-06T23:43:58.425Z,-2.06
2023-02-06T23:46:26.083Z,-2.06
2023-02-06T23:48:52.860Z,-2.05
2023-02-06T23:51:20.518Z,-1.94
2023-02-06T23:53:48.066Z,-1.88
2023-02-06T23:56:23.778Z,-1.90
2023-02-06T23:58:50.709Z,-1.93
